KISWKEGV

Guest
Details From KISW - Alexander Fld South Wood Co
To KEGV - EAGLE RIVER UNION
Flight Number -
Tags generated
Created
Modified
Stats Distance 98 nm / 181 km
Max Altitude 9,200 ft / 2,804 m
Waypoints 3
Social Downloads 0
Likes 0
Share VATSIM

Download

Looking for another format? Having issues loading an existing format? Contact us
Advertisement - Login to hide

Notes

Basic altitude profile: - Ascent Rate: 2500ft/min - Ascent Speed: 250kts - Cruise Altitude: 35000ft - Cruise Speed: 420kts - Descent Rate: 1500ft/min - Descent Speed: 250kts Options: - Use NATs: yes - Use PACOTS: yes - Use low airways: yes - Use high airways: no

Route

KISW ZUPIG KEGV

ID Type Via Altitude Latitude Longitude Leg Dist Tot Dist Heading (true) Name
O KISW APT - 0 ft / 0 m 44.35997˚ -89.83948˚ - 0 nm - Alexander Fld South Wood Co
ZUPIG FIX - 9,200 ft / 2,804 m 45.16136˚ -89.53554˚ 49 nm 49 nm 15° / 15° -
O KEGV APT - 0 ft / 0 m 45.93247˚ -89.26810˚ 47 nm 97 nm 14° / 14° EAGLE RIVER UNION

Altitude Profile

Advertisement - Login to hide

KISW

Details ICAO KISW (ISW)
Name Alexander Fld South Wood Co
Region United States
Timezone America/Chicago (UTC-6.0)
Stats Elevation 1,021 ft / 311 m (AMSL)
Location 44.359969° -89.839476°
Runways 3
Magnetic Variation 2.539° W

METAR

KISW 131842Z AUTO 01009KT 1/2SM SN FZFG VV013 M06/M08 A2938 RMK AO2 SNB05 P0000 T10611078

Decode

TAF

Not found

Departure Runways

ID Width Length Bearing (true) Bearing (mag) Surface Threshold Offset Overrun Length
02 100 ft / 30 m 5,503 ft / 1,677 m 19.72° 22.26° Asphalt 0 ft / 0 m 0 ft / 0 m
11 50 ft / 15 m 3,633 ft / 1,107 m 115.97° 118.51° Asphalt 0 ft / 0 m 0 ft / 0 m
18 50 ft / 15 m 2,102 ft / 641 m 176.01° 178.55° Dirt 0 ft / 0 m 0 ft / 0 m
20 100 ft / 30 m 5,503 ft / 1,677 m 199.72° 202.26° Asphalt 0 ft / 0 m 100 ft / 30 m
29 50 ft / 15 m 3,633 ft / 1,107 m 295.98° 298.52° Asphalt 170 ft / 52 m 0 ft / 0 m
36 50 ft / 15 m 2,102 ft / 641 m 356.01° 358.55° Dirt 0 ft / 0 m 0 ft / 0 m

KEGV

Details ICAO KEGV (EGV)
Name EAGLE RIVER UNION
Region United States
Timezone America/Chicago (UTC-6.0)
Stats Elevation 1,642 ft / 500 m (AMSL)
Location 45.932465° -89.268096°
Runways 2
Magnetic Variation 3.286° W

METAR

KEGV 131835Z AUTO 05009KT 2SM -SN OVC010 M10/M12 A2944 RMK AO2 T10961121

Decode

TAF

Not found

Destination Runways

ID Width Length Bearing (true) Bearing (mag) Surface Threshold Offset Overrun Length
04 76 ft / 23 m 4,996 ft / 1,523 m 45.27° 48.56° Asphalt 0 ft / 0 m 300 ft / 91 m
13 60 ft / 18 m 3,396 ft / 1,035 m 132.51° 135.80° Asphalt 0 ft / 0 m 0 ft / 0 m
22 76 ft / 23 m 4,996 ft / 1,523 m 225.28° 228.57° Asphalt 0 ft / 0 m 0 ft / 0 m
31 60 ft / 18 m 3,396 ft / 1,035 m 312.52° 315.81° Asphalt 0 ft / 0 m 0 ft / 0 m